Terminal Aerodrome Forecast
Issued by NWS Louisville, KY

Home | Current Version | Previous Version | Text Only | Print | Product List | Glossary On
Versions: 1 2 3 4 5 6 7 8 9 10 11 12 13 14 15 16 17 18 19
473
FTUS43 KLMK 251122
TAFBWG
TAF
KBWG 251122Z 2512/2612 32003KT 6SM BR BKN015
     FM251300 35007KT P6SM BKN012
     FM251600 34007KT P6SM BKN025
     FM252200 03004KT P6SM BKN050
     FM260300 VRB02KT P6SM BKN150=

USA.gov is the U.S. government's official web portal to all federal, state and local government web resources and services.